Latest Weather Observations for Hunters Hill

IDV60801

Issued at 9:02 am EST Saturday 1 August 2015 (issued every 30 minutes, with the page automatically refreshed every 10 minutes)

About weather observations | Map of weather stations | Latest weather observations for VIC | Other Formats
Station Details ID: 082139 Name: HUNTERS HILL Lat: -36.21 Lon: 147.54 Height: 981.0 m
Data from the previous 72 hours. | See also: Recent months at Hunters Hill
Date/Time
EST
Temp
°C
App
Temp
°C
Dew
Point
Rel
Hum
%
Delta-T
°C
Wind Press
QNH
hPa
Press
MSL
hPa
Rain
since 9 am
mm
Dir
 
Spd
km/h
Gust
km/h
Spd
kts
Gust
kts
01/09:00am 5.8 1.0 5.8 100 0.0 WNW 20 39 11 21 - - 3.2
01/08:30am 5.7 1.9 5.7 100 0.0 WNW 15 30 8 16 - - 2.6
01/08:00am 5.3 1.8 5.3 100 0.0 WNW 13 24 7 13 - - 1.0
01/07:30am 5.9 2.5 5.8 99 0.0 WNW 13 33 7 18 - - 0.2
01/07:00am 5.7 2.2 5.6 99 0.0 NW 13 30 7 16 - - 0.2
01/06:30am 5.1 2.3 5.1 100 0.0 WNW 9 17 5 9 - - 0.2
01/06:00am 4.8 1.9 4.8 100 0.0 WNW 9 17 5 9 - - 0.2
01/05:30am 4.7 2.2 4.7 100 0.0 NW 7 19 4 10 - - 0.2
01/05:00am 4.8 1.5 4.8 100 0.0 NNW 11 28 6 15 - - 0.2
01/04:30am 4.5 1.6 4.5 100 0.0 NNW 9 24 5 13 - - 0.2
01/04:00am 4.5 1.6 4.5 100 0.0 NNW 9 22 5 12 - - 0.2
01/03:30am 4.1 1.1 4.1 100 0.0 N 9 17 5 9 - - 0.2
01/03:00am 4.2 1.2 4.2 100 0.0 N 9 19 5 10 - - 0.2
01/02:30am 4.1 1.5 4.0 99 0.0 N 7 17 4 9 - - 0.2
01/02:00am 3.9 1.2 3.8 99 0.0 NW 7 15 4 8 - - 0.2
01/01:30am 4.1 1.1 4.1 100 0.0 NW 9 19 5 10 - - 0.2
01/01:00am 4.2 0.8 4.1 99 0.0 N 11 24 6 13 - - 0.2
01/12:30am 4.1 1.1 4.0 99 0.0 NNW 9 20 5 11 - - 0.2
01/12:00am 4.2 0.8 4.1 99 0.0 NNW 11 20 6 11 - - 0.2
 
Date/Time
EST
Temp
°C
App
Temp
°C
Dew
Point
Rel
Hum
%
Delta-T
°C
Wind Press
QNH
hPa
Press
MSL
hPa
Rain
since 9 am
mm
Dir
 
Spd
km/h
Gust
km/h
Spd
kts
Gust
kts
31/11:30pm 4.0 0.6 3.9 99 0.0 NNW 11 22 6 12 - - 0.2
31/11:00pm 4.0 0.6 3.9 99 0.0 NW 11 26 6 14 - - 0.2
31/10:30pm 3.6 0.5 3.5 99 0.0 NNW 9 24 5 13 - - 0.2
31/10:00pm 4.0 0.6 3.9 99 0.0 N 11 26 6 14 - - 0.0
31/09:30pm 4.1 1.1 4.0 99 0.0 N 9 24 5 13 - - 0.0
31/09:00pm 4.0 0.6 4.0 100 0.0 NNE 11 22 6 12 - - 0.0
31/08:30pm 3.3 0.5 3.3 100 0.0 N 7 13 4 7 - - 0.0
31/08:00pm 3.6 1.1 3.6 100 0.0 N 6 11 3 6 - - 0.0
31/07:30pm 3.8 1.3 3.7 99 0.0 N 6 9 3 5 - - 0.0
31/07:00pm 4.5 1.9 4.4 99 0.0 N 7 15 4 8 - - 0.0
31/06:30pm 4.4 1.4 4.3 99 0.0 N 9 13 5 7 - - 0.0
31/06:00pm 4.7 2.1 4.1 96 0.3 N 7 15 4 8 - - 0.0
31/05:30pm 5.3 2.8 3.8 90 0.7 N 6 11 3 6 - - 0.0
31/05:00pm 6.0 3.2 3.2 82 1.2 N 7 11 4 6 - - 0.0
31/04:30pm 6.9 4.3 3.0 76 1.7 N 6 13 3 7 - - 0.0
31/04:00pm 7.4 4.9 3.5 76 1.8 NNW 6 9 3 5 - - 0.0
31/03:30pm 7.8 5.2 3.1 72 2.1 N 6 11 3 6 - - 0.0
31/03:00pm 8.3 5.7 3.2 70 2.3 N 6 11 3 6 - - 0.0
31/02:30pm 7.4 4.9 3.5 76 1.8 N 6 11 3 6 - - 0.0
31/02:00pm 7.8 5.3 3.5 74 2.0 N 6 13 3 7 - - 0.0
31/01:30pm 9.3 7.5 3.7 68 2.6 WSW 2 4 1 2 - - 0.0
31/01:00pm 8.2 6.0 3.3 71 2.2 WSW 4 9 2 5 - - 0.0
31/12:30pm 8.7 6.5 3.5 70 2.4 WSW 4 7 2 4 - - 0.0
31/12:00pm 6.5 4.3 3.1 79 1.5 WSW 4 9 2 5 - - 0.0
31/11:30am 8.0 5.9 3.8 75 1.9 WSW 4 9 2 5 - - 0.0
31/11:00am 7.4 5.8 4.5 82 1.3 WSW 2 6 1 3 - - 0.0
31/10:30am 6.8 5.5 6.1 95 0.3 WSW 2 7 1 4 - - 0.0
31/10:00am 4.9 3.4 4.9 100 0.0 WSW 2 7 1 4 - - 0.0
31/09:30am 4.0 2.3 4.0 100 0.0 WSW 2 6 1 3 - - 0.0
31/09:00am 3.5 1.7 3.5 100 0.0 WSW 2 6 1 3 - - 0.6
31/08:30am 3.8 2.4 3.8 100 0.0 CALM 0 0 0 0 - - 0.6
31/08:00am 3.3 1.5 3.3 100 0.0 WSW 2 2 1 1 - - 0.6
31/07:30am 3.3 1.9 3.3 100 0.0 CALM 0 0 0 0 - - 0.6
31/07:00am 3.3 1.9 3.3 100 0.0 CALM 0 0 0 0 - - 0.6
31/06:30am 3.2 1.7 3.2 100 0.0 CALM 0 0 0 0 - - 0.6
31/06:00am 3.3 1.9 3.3 100 0.0 CALM 0 0 0 0 - - 0.4
31/05:30am 3.3 1.9 3.3 100 0.0 CALM 0 2 0 1 - - 0.4
31/05:00am 3.5 1.3 3.4 99 0.0 WSW 4 6 2 3 - - 0.2
31/04:30am 3.6 1.1 3.5 99 0.0 WSW 6 9 3 5 - - 0.2
31/04:00am 3.9 1.7 3.3 96 0.3 WNW 4 9 2 5 - - 0.2
31/03:30am 3.9 1.3 3.3 96 0.3 WNW 6 13 3 7 - - 0.2
31/03:00am 4.0 1.4 3.4 96 0.3 WNW 6 13 3 7 - - 0.2
31/02:30am 4.1 1.3 3.4 95 0.3 NW 7 19 4 10 - - 0.2
31/02:00am 4.1 0.1 3.1 93 0.4 NW 13 24 7 13 - - 0.2
31/01:30am 4.0 0.8 3.3 95 0.3 WNW 9 17 5 9 - - 0.2
31/01:00am 3.7 0.9 3.4 98 0.1 NW 7 15 4 8 - - 0.2
31/12:30am 3.6 0.1 3.5 99 0.0 WNW 11 22 6 12 - - 0.2
31/12:00am 3.5 -0.4 3.4 99 0.0 NW 13 24 7 13 - - 0.2
 
Date/Time
EST
Temp
°C
App
Temp
°C
Dew
Point
Rel
Hum
%
Delta-T
°C
Wind Press
QNH
hPa
Press
MSL
hPa
Rain
since 9 am
mm
Dir
 
Spd
km/h
Gust
km/h
Spd
kts
Gust
kts
30/11:30pm 3.6 -0.3 3.5 99 0.0 WNW 13 24 7 13 - - 0.2
30/11:00pm 3.5 -0.8 3.4 99 0.0 WNW 15 26 8 14 - - 0.2
30/10:30pm 3.6 0.1 3.5 99 0.0 WNW 11 20 6 11 - - 0.0
30/10:00pm 3.6 -0.3 3.3 98 0.1 NW 13 32 7 17 - - 0.0
30/09:30pm 3.5 -0.4 3.5 100 0.0 NW 13 24 7 13 - - 0.0
30/09:00pm 3.5 -0.4 3.5 100 0.0 NW 13 22 7 12 - - 0.0
30/08:30pm 3.5 -0.4 3.5 100 0.0 NW 13 22 7 12 - - 0.0
30/08:00pm 3.6 0.5 3.5 99 0.0 NW 9 28 5 15 - - 0.0
30/07:30pm 3.5 0.0 3.4 99 0.0 NNW 11 20 6 11 - - 0.0
30/07:00pm 3.8 0.3 3.7 99 0.0 NNW 11 24 6 13 - - 0.0
30/06:30pm 3.8 0.3 3.7 99 0.0 NNW 11 22 6 12 - - 0.0
30/06:00pm 3.9 -0.7 3.8 99 0.0 NW 17 30 9 16 - - 0.0
30/05:30pm 3.9 0.5 3.8 99 0.0 N 11 20 6 11 - - 0.0
30/05:00pm 3.9 0.3 2.9 93 0.4 NNW 11 19 6 10 - - 0.0
30/04:30pm 4.4 -0.1 2.4 87 0.9 NW 15 37 8 20 - - 0.0
30/04:00pm 4.7 1.9 3.4 91 0.6 NW 7 19 4 10 - - 0.0
30/03:30pm 4.7 1.6 3.7 93 0.4 N 9 17 5 9 - - 0.0
30/03:00pm 4.9 2.2 3.9 93 0.4 NNW 7 15 4 8 - - 0.0
30/02:30pm 5.2 2.1 3.7 90 0.7 N 9 19 5 10 - - 0.0
30/02:00pm 5.5 2.9 3.3 86 1.0 N 6 13 3 7 - - 0.0
30/01:30pm 5.4 2.8 3.4 87 0.9 WNW 6 13 3 7 - - 0.0
30/01:00pm 6.1 3.0 3.6 84 1.1 N 9 19 5 10 - - 0.0
30/12:30pm 5.5 2.6 2.8 83 1.2 N 7 15 4 8 - - 0.0
30/12:00pm 5.7 3.2 3.9 88 0.8 N 6 11 3 6 - - 0.0
30/11:30am 4.9 2.4 3.6 91 0.6 N 6 13 3 7 - - 0.0
30/11:00am 4.5 2.0 3.6 94 0.4 NNW 6 15 3 8 - - 0.0
30/10:30am 4.0 1.4 3.1 94 0.4 N 6 13 3 7 - - 0.0
30/10:00am 3.9 1.2 2.6 91 0.6 N 6 11 3 6 - - 0.0
30/09:30am 3.8 1.2 3.1 95 0.3 N 6 11 3 6 - - 0.0
30/09:00am 3.3 1.0 2.7 96 0.3 N 4 7 2 4 - - 0.0
30/08:30am 2.9 0.5 1.9 93 0.4 N 4 9 2 5 - - 0.0
30/08:00am 2.7 -0.2 1.4 91 0.5 NNW 6 11 3 6 - - 0.0
30/07:30am 2.2 -0.3 1.8 97 0.2 NNW 4 7 2 4 - - 0.0
30/07:00am 2.1 -0.4 1.8 98 0.1 NNW 4 9 2 5 - - 0.0
30/06:30am 2.1 -0.7 2.0 99 0.0 NNW 6 7 3 4 - - 0.0
30/06:00am 1.9 -0.6 1.8 99 0.0 NNW 4 9 2 5 - - 0.0
30/05:30am 1.7 -0.4 1.7 100 0.0 NNW 2 6 1 3 - - 0.0
30/05:00am 1.8 -0.3 1.7 99 0.0 NNW 2 6 1 3 - - 0.0
30/04:30am 1.9 -0.9 1.8 99 0.0 NNW 6 9 3 5 - - 0.0
30/04:00am 2.1 -0.7 2.0 99 0.0 NNW 6 9 3 5 - - 0.0
30/03:30am 1.8 -1.0 1.8 100 0.0 NNW 6 11 3 6 - - 0.0
30/03:00am 1.6 -1.3 1.6 100 0.0 NNW 6 11 3 6 - - 0.0
30/02:30am 1.6 -1.3 1.6 100 0.0 W 6 9 3 5 - - 0.0
30/02:00am 1.8 -1.0 1.8 100 0.0 W 6 7 3 4 - - 0.0
30/01:30am 2.0 -0.4 2.0 100 0.0 W 4 7 2 4 - - 0.0
30/01:00am 2.1 -0.7 2.1 100 0.0 W 6 13 3 7 - - 0.0
30/12:30am 2.3 -0.5 2.3 100 0.0 W 6 11 3 6 - - 0.0
30/12:00am 2.7 0.0 2.7 100 0.0 W 6 13 3 7 - - 0.0
 
Date/Time
EST
Temp
°C
App
Temp
°C
Dew
Point
Rel
Hum
%
Delta-T
°C
Wind Press
QNH
hPa
Press
MSL
hPa
Rain
since 9 am
mm
Dir
 
Spd
km/h
Gust
km/h
Spd
kts
Gust
kts
29/11:30pm 2.6 -0.1 2.6 100 0.0 W 6 11 3 6 - - 0.0
29/11:00pm 2.7 0.4 2.7 100 0.0 W 4 6 2 3 - - 0.0
29/10:30pm 2.9 0.6 2.9 100 0.0 W 4 6 2 3 - - 0.0
29/10:00pm 2.8 0.5 2.8 100 0.0 W 4 6 2 3 - - 0.0
29/09:30pm 3.0 0.7 3.0 100 0.0 W 4 7 2 4 - - 0.0
29/09:00pm 3.1 0.9 3.1 100 0.0 W 4 7 2 4 - - 0.0
29/08:30pm 3.2 1.0 3.1 99 0.0 W 4 7 2 4 - - 0.0
29/08:00pm 3.3 0.7 3.2 99 0.0 W 6 9 3 5 - - 0.0
29/07:30pm 3.0 0.7 2.9 99 0.0 W 4 7 2 4 - - 0.0
29/07:00pm 3.0 1.1 2.9 99 0.0 W 2 4 1 2 - - 0.0
29/06:30pm 3.3 1.5 3.2 99 0.0 W 2 4 1 2 - - 0.0
29/06:00pm 3.3 1.5 3.2 99 0.0 W 2 6 1 3 - - 0.0
29/05:30pm 3.8 1.7 3.7 99 0.0 W 4 6 2 3 - - 0.0
29/05:00pm 4.1 1.8 2.8 91 0.6 W 4 6 2 3 - - 0.0
29/04:30pm 4.8 2.4 2.0 82 1.2 W 4 7 2 4 - - 0.0
29/04:00pm 5.2 3.5 4.0 92 0.5 W 2 6 1 3 - - 0.0
29/03:30pm 4.9 3.2 4.0 94 0.4 W 2 4 1 2 - - 0.0
29/03:00pm 5.0 3.3 4.0 93 0.4 W 2 6 1 3 - - 0.0
29/02:30pm 5.5 3.0 3.7 88 0.8 W 6 9 3 5 - - 0.0
29/02:00pm 7.0 4.1 2.7 74 1.9 W 7 13 4 7 - - 0.0
29/01:30pm 6.5 3.6 1.6 71 2.1 W 6 13 3 7 - - 0.0
29/01:00pm 6.8 4.1 2.5 74 1.9 W 6 11 3 6 - - 0.0
29/12:30pm 6.2 3.5 2.8 79 1.5 W 6 17 3 9 - - 0.0
29/12:00pm 7.1 4.4 3.9 80 1.5 W 7 19 4 10 - - 0.0
29/11:30am 6.4 4.2 5.2 92 0.6 W 6 9 3 5 - - 0.0
29/11:00am 5.5 2.4 3.8 89 0.8 W 9 17 5 9 - - 0.0
29/10:30am 5.2 2.4 3.2 87 0.9 W 7 15 4 8 - - 0.0
29/10:00am 5.1 3.1 4.5 96 0.3 W 4 13 2 7 - - 0.0
29/09:30am 4.3 2.3 4.3 100 0.0 W 4 6 2 3 - - 0.0

Other Formats:

Comma delimited format used in spreadsheet applications
http://www.bom.gov.au/fwo/IDV60801/IDV60801.94878.axf

JavaScript Object Notation format (JSON) in row-major order
http://www.bom.gov.au/fwo/IDV60801/IDV60801.94878.json